createdAt,value
2022-12-17T00:01:49.144Z,10.60
2022-12-17T00:04:34.632Z,10.60
2022-12-17T00:07:20.654Z,10.50
2022-12-17T00:10:06.311Z,10.40
2022-12-17T00:12:51.821Z,10.30
2022-12-17T00:15:37.567Z,10.40
2022-12-17T00:18:26.945Z,10.30
2022-12-17T00:21:17.929Z,10.30
2022-12-17T00:24:04.713Z,10.40
2022-12-17T00:26:51.169Z,10.40
2022-12-17T00:29:37.810Z,10.30
2022-12-17T00:32:23.704Z,10.20
2022-12-17T00:35:09.108Z,10.20
2022-12-17T00:37:55.395Z,10.00
2022-12-17T00:40:42.002Z,9.90
2022-12-17T00:43:30.150Z,9.70
2022-12-17T00:46:16.969Z,9.60
2022-12-17T00:49:02.991Z,9.40
2022-12-17T00:51:48.511Z,9.20
2022-12-17T00:54:44.968Z,9.20
2022-12-17T00:57:30.634Z,9.20
2022-12-17T01:00:15.985Z,9.20
2022-12-17T01:03:01.383Z,9.10
2022-12-17T01:05:47.106Z,9.20
2022-12-17T01:08:33.675Z,9.20
2022-12-17T01:11:24.473Z,9.30
2022-12-17T01:14:10.160Z,9.30
2022-12-17T01:16:56.323Z,9.40
2022-12-17T01:19:42.125Z,9.40
2022-12-17T01:22:27.586Z,9.50
2022-12-17T01:25:13.132Z,9.60
2022-12-17T01:27:58.767Z,9.50
2022-12-17T01:30:44.037Z,9.50
2022-12-17T01:33:31.479Z,9.40
2022-12-17T01:36:17.465Z,9.50
2022-12-17T01:39:03.346Z,9.50
2022-12-17T01:41:48.956Z,9.50
2022-12-17T01:45:02.620Z,9.40
2022-12-17T01:48:08.208Z,10.60
2022-12-17T01:50:57.891Z,9.20
2022-12-17T01:53:47.576Z,9.20
2022-12-17T01:56:34.041Z,9.00
2022-12-17T01:59:20.090Z,8.60
2022-12-17T02:02:06.434Z,8.30
2022-12-17T02:04:52.181Z,8.10
2022-12-17T02:07:58.620Z,8.10
2022-12-17T02:11:03.966Z,7.90
2022-12-17T02:13:54.627Z,8.00
2022-12-17T02:16:57.504Z,7.90
2022-12-17T02:20:13.173Z,8.00
2022-12-17T02:23:19.003Z,8.10
2022-12-17T02:26:18.533Z,8.10
2022-12-17T02:29:07.577Z,8.00
2022-12-17T02:31:56.497Z,7.80
2022-12-17T02:34:42.498Z,7.50
2022-12-17T02:37:27.802Z,7.40
2022-12-17T02:40:13.219Z,7.40
2022-12-17T02:43:00.362Z,7.30
2022-12-17T02:45:45.791Z,7.20
2022-12-17T02:48:31.976Z,7.00
2022-12-17T02:51:18.485Z,6.70
2022-12-17T02:54:04.949Z,6.60
2022-12-17T02:56:50.596Z,6.70
2022-12-17T02:59:35.988Z,6.40
2022-12-17T03:02:22.030Z,6.20
2022-12-17T03:05:35.478Z,6.20
2022-12-17T03:08:13.075Z,6.10
2022-12-17T03:10:58.575Z,6.20
2022-12-17T03:13:47.490Z,6.40
2022-12-17T03:16:38.027Z,6.40
2022-12-17T03:19:24.314Z,6.50
2022-12-17T03:22:09.532Z,6.60
2022-12-17T03:24:55.217Z,6.70
2022-12-17T03:27:43.858Z,6.70
2022-12-17T03:30:33.314Z,6.80
2022-12-17T03:33:21.156Z,7.00
2022-12-17T03:36:06.865Z,7.00
2022-12-17T03:38:52.477Z,8.20
2022-12-17T03:41:38.438Z,7.10
2022-12-17T03:44:23.806Z,7.10
2022-12-17T03:47:09.287Z,7.10
2022-12-17T03:49:55.002Z,7.20
2022-12-17T03:52:40.884Z,7.30
2022-12-17T03:55:26.695Z,7.00
2022-12-17T03:58:12.742Z,6.90
2022-12-17T04:00:58.303Z,6.80
2022-12-17T04:03:43.914Z,6.80
2022-12-17T04:06:29.486Z,6.70
2022-12-17T04:09:15.194Z,6.70
2022-12-17T04:12:00.710Z,8.20
2022-12-17T04:14:46.065Z,6.00
2022-12-17T04:17:31.997Z,6.00
2022-12-17T04:20:17.615Z,5.80
2022-12-17T04:23:03.822Z,5.80
2022-12-17T04:25:49.459Z,5.80
2022-12-17T04:28:34.745Z,5.90
2022-12-17T04:31:20.360Z,5.80
2022-12-17T04:34:06.108Z,5.70
2022-12-17T04:36:51.478Z,6.50
2022-12-17T04:39:37.053Z,5.70
2022-12-17T04:42:22.645Z,5.60
2022-12-17T04:45:08.159Z,5.50
2022-12-17T04:47:53.599Z,5.50
2022-12-17T04:50:38.760Z,6.40
2022-12-17T04:53:25.308Z,5.40
2022-12-17T04:56:13.371Z,5.40
2022-12-17T04:58:59.471Z,5.40
2022-12-17T05:01:45.283Z,5.40
2022-12-17T05:04:30.705Z,5.60
2022-12-17T05:07:16.176Z,5.30
2022-12-17T05:10:01.766Z,5.40
2022-12-17T05:12:47.776Z,5.30
2022-12-17T05:15:33.539Z,5.20
2022-12-17T05:18:26.416Z,5.10
2022-12-17T05:21:30.566Z,5.10
2022-12-17T05:24:18.689Z,5.10
2022-12-17T05:27:04.295Z,5.10
2022-12-17T05:29:49.699Z,5.10
2022-12-17T05:32:35.045Z,5.10
2022-12-17T05:35:20.623Z,5.10
2022-12-17T05:38:06.605Z,5.20
2022-12-17T05:40:52.353Z,5.30
2022-12-17T05:43:38.330Z,5.30
2022-12-17T05:46:24.928Z,5.50
2022-12-17T05:49:10.367Z,5.30
2022-12-17T05:51:55.992Z,5.50
2022-12-17T05:54:41.704Z,5.30
2022-12-17T05:57:27.488Z,5.10
2022-12-17T06:00:12.680Z,5.00
2022-12-17T06:02:58.838Z,5.20
2022-12-17T06:05:44.089Z,5.10
2022-12-17T06:08:29.531Z,5.20
2022-12-17T06:11:18.321Z,5.20
2022-12-17T06:14:03.703Z,5.10
2022-12-17T06:16:49.245Z,5.20
2022-12-17T06:19:34.603Z,5.40
2022-12-17T06:22:20.457Z,5.30
2022-12-17T06:25:06.118Z,5.60
2022-12-17T06:27:51.826Z,5.40
2022-12-17T06:30:37.382Z,5.20
2022-12-17T06:33:28.711Z,5.20
2022-12-17T06:36:22.173Z,5.00
2022-12-17T06:39:08.958Z,5.00
2022-12-17T06:42:00.495Z,4.90
2022-12-17T06:44:49.797Z,4.90
2022-12-17T06:47:35.123Z,5.00
2022-12-17T06:50:21.303Z,5.30
2022-12-17T06:53:06.757Z,5.20
2022-12-17T06:55:52.202Z,5.30
2022-12-17T06:58:37.725Z,5.40
2022-12-17T07:01:23.809Z,5.50
2022-12-17T07:04:09.613Z,5.40
2022-12-17T07:06:55.489Z,5.60
2022-12-17T07:09:41.209Z,5.50
2022-12-17T07:12:26.571Z,5.50
2022-12-17T07:15:13.270Z,5.60
2022-12-17T07:17:59.133Z,5.80
2022-12-17T07:20:44.320Z,5.80
2022-12-17T07:23:30.108Z,5.90
2022-12-17T07:26:16.475Z,6.00
2022-12-17T07:29:01.716Z,6.00
2022-12-17T07:31:47.659Z,6.10
2022-12-17T07:34:33.029Z,6.30
2022-12-17T07:37:20.647Z,6.40
2022-12-17T07:40:06.088Z,6.50
2022-12-17T07:42:51.608Z,6.70
2022-12-17T07:45:37.326Z,6.70
2022-12-17T07:48:22.781Z,6.80
2022-12-17T07:51:08.865Z,6.90
2022-12-17T07:53:54.935Z,6.90
2022-12-17T07:56:40.590Z,7.00
2022-12-17T07:59:26.178Z,8.20
2022-12-17T08:02:11.894Z,7.10
2022-12-17T08:04:57.721Z,7.10
2022-12-17T08:07:44.217Z,7.10
2022-12-17T08:10:29.828Z,7.10
2022-12-17T08:13:17.180Z,7.00
2022-12-17T08:16:02.689Z,7.00
2022-12-17T08:18:48.257Z,6.70
2022-12-17T08:21:33.530Z,6.60
2022-12-17T08:24:19.012Z,6.60
2022-12-17T08:27:04.553Z,6.40
2022-12-17T08:29:50.075Z,6.30
2022-12-17T08:32:35.485Z,6.30
2022-12-17T08:35:21.028Z,6.50
2022-12-17T08:38:06.645Z,6.50
2022-12-17T08:40:51.838Z,6.70
2022-12-17T08:43:38.112Z,6.70
2022-12-17T08:46:23.702Z,6.80
2022-12-17T08:49:09.649Z,6.80
2022-12-17T08:51:55.397Z,6.90
2022-12-17T08:54:40.663Z,7.00
2022-12-17T08:57:31.991Z,7.20
2022-12-17T09:00:18.606Z,7.20
2022-12-17T09:03:04.942Z,7.30
2022-12-17T09:05:50.462Z,7.30
2022-12-17T09:08:36.253Z,7.30
2022-12-17T09:11:22.100Z,7.20
2022-12-17T09:14:09.983Z,7.20
2022-12-17T09:16:58.285Z,7.10
2022-12-17T09:19:49.827Z,7.10
2022-12-17T09:22:38.047Z,7.30
2022-12-17T09:25:24.355Z,7.20
2022-12-17T09:28:09.915Z,7.20
2022-12-17T09:30:55.882Z,7.30
2022-12-17T09:33:41.446Z,7.30
2022-12-17T09:36:27.359Z,7.20
2022-12-17T09:39:15.131Z,7.20
2022-12-17T09:42:11.533Z,7.20
2022-12-17T09:45:22.074Z,7.20
2022-12-17T09:48:16.974Z,7.20
2022-12-17T09:51:04.919Z,7.20
2022-12-17T09:54:03.794Z,7.30
2022-12-17T09:57:06.873Z,7.10
2022-12-17T09:59:56.883Z,7.20
2022-12-17T10:02:57.391Z,7.30
2022-12-17T10:05:56.922Z,7.30
2022-12-17T10:08:49.712Z,8.10
2022-12-17T10:11:56.206Z,7.30
2022-12-17T10:14:53.814Z,7.60
2022-12-17T10:17:41.421Z,7.90
2022-12-17T10:20:39.576Z,7.30
2022-12-17T10:23:24.966Z,7.30
2022-12-17T10:26:13.105Z,7.20
2022-12-17T10:28:59.625Z,7.20
2022-12-17T10:31:48.809Z,7.10
2022-12-17T10:34:37.346Z,7.20
2022-12-17T10:37:24.925Z,7.30
2022-12-17T10:40:16.712Z,7.40
2022-12-17T10:43:03.722Z,7.60
2022-12-17T10:45:54.627Z,7.90
2022-12-17T10:48:47.183Z,7.70
2022-12-17T10:51:39.012Z,7.60
2022-12-17T10:54:48.726Z,7.60
2022-12-17T10:57:37.961Z,7.60
2022-12-17T11:00:49.717Z,7.50
2022-12-17T11:04:09.621Z,7.50
2022-12-17T11:07:31.177Z,7.40
2022-12-17T11:10:36.066Z,7.40
2022-12-17T11:13:34.598Z,7.30
2022-12-17T11:16:22.644Z,7.20
2022-12-17T11:19:17.348Z,7.30
2022-12-17T11:22:07.073Z,7.20
2022-12-17T11:25:13.634Z,8.30
2022-12-17T11:28:04.668Z,7.60
2022-12-17T11:31:04.217Z,7.20
2022-12-17T11:34:33.528Z,7.30
2022-12-17T11:37:33.938Z,7.40
2022-12-17T11:40:41.810Z,7.30
2022-12-17T11:43:52.489Z,7.30
2022-12-17T11:47:06.304Z,7.20
2022-12-17T11:50:19.112Z,7.10
2022-12-17T11:53:10.431Z,7.20
2022-12-17T11:56:09.037Z,7.50
2022-12-17T11:59:03.227Z,7.50
2022-12-17T12:02:07.473Z,7.40
2022-12-17T12:05:16.875Z,7.30
2022-12-17T12:08:36.646Z,7.40
2022-12-17T12:11:50.386Z,7.50
2022-12-17T12:14:47.971Z,7.70
2022-12-17T12:17:48.805Z,7.70
2022-12-17T12:20:59.095Z,9.10
2022-12-17T12:24:43.057Z,7.60
2022-12-17T12:27:48.333Z,7.40
2022-12-17T12:30:40.075Z,8.20
2022-12-17T12:34:08.873Z,7.10
2022-12-17T12:36:56.481Z,7.00
2022-12-17T12:40:05.693Z,7.00
2022-12-17T12:43:06.931Z,6.90
2022-12-17T12:46:27.598Z,7.00
2022-12-17T12:49:54.142Z,7.00
2022-12-17T12:52:43.762Z,5.60
2022-12-17T12:55:29.689Z,6.90
2022-12-17T12:58:33.528Z,6.80
2022-12-17T13:01:19.524Z,6.80
2022-12-17T13:04:05.232Z,6.80
2022-12-17T13:06:55.678Z,6.80
2022-12-17T13:09:34.211Z,6.90
2022-12-17T13:12:05.376Z,6.70
2022-12-17T13:14:46.800Z,6.70
2022-12-17T13:17:17.088Z,6.80
2022-12-17T13:19:57.928Z,6.70
2022-12-17T13:22:24.927Z,6.80
2022-12-17T13:25:14.653Z,6.80
2022-12-17T13:27:42.902Z,6.90
2022-12-17T13:30:22.633Z,7.00
2022-12-17T13:33:20.531Z,7.00
2022-12-17T13:36:03.006Z,6.90
2022-12-17T13:38:51.522Z,6.80
2022-12-17T13:42:12.784Z,6.80
2022-12-17T13:44:46.221Z,6.90
2022-12-17T13:47:35.308Z,6.90
2022-12-17T13:50:35.552Z,6.60
2022-12-17T13:53:23.639Z,6.60
2022-12-17T13:55:56.418Z,6.60
2022-12-17T13:58:30.552Z,6.60
2022-12-17T14:01:09.421Z,6.50
2022-12-17T14:04:04.703Z,6.60
2022-12-17T14:06:28.920Z,6.60
2022-12-17T14:08:57.327Z,6.70
2022-12-17T14:11:43.276Z,6.70
2022-12-17T14:14:24.207Z,6.70
2022-12-17T14:16:51.255Z,6.80
2022-12-17T14:19:21.896Z,7.00
2022-12-17T14:21:49.077Z,7.00
2022-12-17T14:24:19.045Z,7.10
2022-12-17T14:26:56.370Z,7.20
2022-12-17T14:29:25.645Z,7.30
2022-12-17T14:31:57.239Z,7.20
2022-12-17T14:34:25.050Z,7.30
2022-12-17T14:36:58.099Z,7.40
2022-12-17T14:39:33.104Z,7.30
2022-12-17T14:42:25.980Z,7.00
2022-12-17T14:44:57.860Z,7.00
2022-12-17T14:47:27.811Z,7.10
2022-12-17T14:50:04.767Z,6.90
2022-12-17T14:52:34.824Z,7.00
2022-12-17T14:55:02.470Z,8.30
2022-12-17T14:57:34.629Z,7.00
2022-12-17T15:00:01.851Z,7.60
2022-12-17T15:02:36.665Z,7.00
2022-12-17T15:05:04.205Z,6.90
2022-12-17T15:07:32.257Z,6.90
2022-12-17T15:10:13.082Z,6.90
2022-12-17T15:12:42.833Z,8.40
2022-12-17T15:15:15.126Z,6.90
2022-12-17T15:17:42.997Z,7.00
2022-12-17T15:20:19.931Z,6.90
2022-12-17T15:22:55.313Z,6.80
2022-12-17T15:25:24.845Z,7.00
2022-12-17T15:27:51.835Z,7.00
2022-12-17T15:30:21.852Z,7.00
2022-12-17T15:32:49.210Z,7.00
2022-12-17T15:35:19.306Z,6.90
2022-12-17T15:37:46.243Z,6.80
2022-12-17T15:40:13.056Z,6.80
2022-12-17T15:43:04.450Z,6.80
2022-12-17T15:45:33.191Z,6.90
2022-12-17T15:48:00.130Z,7.00
2022-12-17T15:50:26.980Z,7.00
2022-12-17T15:52:53.876Z,6.90
2022-12-17T15:55:21.378Z,6.90
2022-12-17T15:57:48.563Z,6.90
2022-12-17T16:00:15.985Z,6.90
2022-12-17T16:02:43.447Z,6.90
2022-12-17T16:05:10.388Z,7.00
2022-12-17T16:07:38.023Z,6.80
2022-12-17T16:10:08.531Z,6.60
2022-12-17T16:12:35.809Z,6.60
2022-12-17T16:15:03.839Z,6.60
2022-12-17T16:17:30.627Z,6.50
2022-12-17T16:19:58.090Z,6.50
2022-12-17T16:22:24.901Z,6.60
2022-12-17T16:24:52.671Z,6.60
2022-12-17T16:27:19.989Z,6.50
2022-12-17T16:29:48.174Z,6.50
2022-12-17T16:32:16.787Z,6.60
2022-12-17T16:34:44.363Z,6.60
2022-12-17T16:37:11.767Z,6.70
2022-12-17T16:39:38.712Z,6.70
2022-12-17T16:42:05.606Z,6.70
2022-12-17T16:44:32.975Z,6.80
2022-12-17T16:47:00.279Z,6.80
2022-12-17T16:49:27.328Z,6.80
2022-12-17T16:51:55.459Z,6.80
2022-12-17T16:54:26.539Z,6.90
2022-12-17T16:56:54.344Z,6.70
2022-12-17T16:59:22.125Z,6.70
2022-12-17T17:01:51.292Z,6.70
2022-12-17T17:04:21.228Z,6.70
2022-12-17T17:06:56.501Z,6.70
2022-12-17T17:09:25.222Z,6.70
2022-12-17T17:11:56.463Z,6.60
2022-12-17T17:14:23.997Z,6.60
2022-12-17T17:16:52.047Z,7.10
2022-12-17T17:19:21.627Z,6.80
2022-12-17T17:21:52.504Z,6.60
2022-12-17T17:24:25.399Z,6.70
2022-12-17T17:26:53.399Z,6.70
2022-12-17T17:29:20.322Z,6.70
2022-12-17T17:34:34.641Z,6.70
2022-12-17T17:37:01.401Z,6.70
2022-12-17T17:39:31.822Z,6.80
2022-12-17T17:41:58.827Z,6.70
2022-12-17T17:44:25.612Z,6.70
2022-12-17T17:46:52.507Z,6.60
2022-12-17T17:49:20.198Z,6.50
2022-12-17T17:54:33.704Z,6.60
2022-12-17T17:57:01.069Z,6.50
2022-12-17T17:59:33.414Z,6.40
2022-12-17T18:02:02.424Z,6.50
2022-12-17T18:04:29.637Z,6.40
2022-12-17T18:09:43.705Z,6.40
2022-12-17T18:12:28.943Z,6.50
2022-12-17T18:17:43.043Z,6.40
2022-12-17T18:20:10.668Z,6.50
2022-12-17T18:22:37.889Z,6.50
2022-12-17T18:25:05.522Z,6.60
2022-12-17T18:27:32.403Z,6.50
2022-12-17T18:29:59.264Z,6.50
2022-12-17T18:32:26.480Z,6.50
2022-12-17T18:34:53.766Z,6.60
2022-12-17T18:37:20.661Z,6.50
2022-12-17T18:39:49.323Z,6.60
2022-12-17T18:42:34.636Z,6.60
2022-12-17T18:45:01.570Z,6.70
2022-12-17T18:47:28.846Z,6.50
2022-12-17T18:49:55.997Z,6.50
2022-12-17T18:52:24.963Z,6.60
2022-12-17T18:54:51.818Z,6.50
2022-12-17T18:57:19.107Z,6.40
2022-12-17T18:59:45.936Z,6.40
2022-12-17T19:02:14.461Z,6.40
2022-12-17T19:04:42.055Z,6.60
2022-12-17T19:07:09.343Z,6.50
2022-12-17T19:09:36.916Z,6.70
2022-12-17T19:12:05.575Z,6.60
2022-12-17T19:14:32.400Z,6.60
2022-12-17T19:16:59.991Z,6.70
2022-12-17T19:19:27.611Z,6.70
2022-12-17T19:21:55.247Z,6.70
2022-12-17T19:24:22.973Z,6.70
2022-12-17T19:26:50.589Z,6.60
2022-12-17T19:29:19.023Z,6.50
2022-12-17T19:31:46.111Z,6.40
2022-12-17T19:34:14.812Z,6.20
2022-12-17T19:36:42.462Z,6.20
2022-12-17T19:39:12.705Z,6.10
2022-12-17T19:41:39.951Z,6.20
2022-12-17T19:44:10.904Z,6.30
2022-12-17T19:46:38.147Z,6.20
2022-12-17T19:49:05.989Z,6.40
2022-12-17T19:51:33.290Z,6.40
2022-12-17T19:54:08.132Z,6.30
2022-12-17T19:56:36.679Z,6.40
2022-12-17T19:59:07.465Z,6.30
2022-12-17T20:01:36.930Z,6.30
2022-12-17T20:04:05.019Z,6.40
2022-12-17T20:06:33.931Z,6.40
2022-12-17T20:09:02.385Z,6.40
2022-12-17T20:11:35.787Z,6.50
2022-12-17T20:14:26.225Z,6.50
2022-12-17T20:16:57.611Z,6.50
2022-12-17T20:19:32.612Z,6.40
2022-12-17T20:22:01.549Z,6.40
2022-12-17T20:24:31.439Z,6.40
2022-12-17T20:26:59.558Z,6.30
2022-12-17T20:29:27.307Z,6.30
2022-12-17T20:31:54.543Z,6.40
2022-12-17T20:34:21.594Z,6.30
2022-12-17T20:36:49.047Z,6.30
2022-12-17T20:39:16.090Z,6.40
2022-12-17T20:41:44.333Z,6.40
2022-12-17T20:44:14.507Z,6.40
2022-12-17T20:46:42.717Z,6.30
2022-12-17T20:49:13.052Z,6.30
2022-12-17T20:51:40.119Z,6.50
2022-12-17T20:54:11.324Z,6.50
2022-12-17T20:56:39.889Z,6.30
2022-12-17T21:23:55.192Z,6.30
2022-12-17T22:24:36.257Z,6.40
2022-12-17T22:27:04.035Z,6.40
2022-12-17T22:29:52.486Z,6.60
2022-12-17T22:32:50.803Z,6.40
2022-12-17T22:40:03.252Z,6.40
2022-12-17T22:44:29.565Z,6.40
2022-12-17T22:44:40.882Z,6.30
2022-12-17T22:46:19.839Z,6.30
2022-12-17T22:48:49.343Z,6.30
2022-12-17T22:51:32.590Z,6.30
2022-12-17T22:54:09.117Z,6.30
2022-12-17T22:57:35.231Z,6.40
2022-12-17T22:59:29.696Z,6.30
2022-12-17T23:01:56.679Z,6.40
2022-12-17T23:04:23.692Z,6.30
2022-12-17T23:09:25.915Z,6.20
2022-12-17T23:11:53.157Z,6.30
2022-12-17T23:14:20.904Z,6.30
2022-12-17T23:16:48.668Z,6.20
2022-12-17T23:19:15.675Z,6.20
2022-12-17T23:21:45.424Z,6.20
2022-12-17T23:24:13.146Z,6.10
2022-12-17T23:26:40.768Z,6.00
2022-12-17T23:29:10.902Z,6.00
2022-12-17T23:31:48.607Z,6.00
2022-12-17T23:34:15.722Z,6.00
2022-12-17T23:36:45.619Z,6.10
2022-12-17T23:39:12.560Z,6.20
2022-12-17T23:41:42.360Z,6.30
2022-12-17T23:44:14.555Z,6.30
2022-12-17T23:46:44.916Z,6.10
2022-12-17T23:49:14.582Z,6.00
2022-12-17T23:51:51.111Z,6.90
2022-12-17T23:54:18.300Z,6.10
2022-12-17T23:56:48.761Z,6.40
